Appleton Municipal Airport


Codes: KAQP/
Name: Appleton Municipal Airport
City: Appleton
Country: United States
Elevation: 1020 ft.

Photos at Appleton Municipal Airport


   Photos courtesy of SpottingLog. You can add your own sightings and photos by signing up for a free trial today.



No photos found.

Weather at Appleton Municipal Airport


Time (UTC)DescriptionTempratureWindCloud coverageVisibilityPressureHumidity
13-Jun-2024 03:00Light Rain28°C11 mph, NW0%10000m1004hPa52%
13-Jun-2024 06:00Clear Sky22°C7 mph, NW0%10000m1005hPa66%
13-Jun-2024 09:00Clear Sky16°C9 mph, NW4%10000m1007hPa81%
13-Jun-2024 12:00Scattered Clouds15°C9 mph, NW28%10000m1009hPa80%
13-Jun-2024 15:00Clear Sky22°C7 mph, NW6%10000m1011hPa56%
13-Jun-2024 18:00Clear Sky25°C7 mph, NW3%10000m1012hPa36%
13-Jun-2024 21:00Clear Sky26°C9 mph, NW0%10000m1013hPa36%
14-Jun-2024 00:00Clear Sky24°C7 mph, SW1%10000m1012hPa54%
14-Jun-2024 03:00Clear Sky18°C9 mph, NW0%10000m1014hPa69%
14-Jun-2024 06:00Clear Sky15°C4 mph, NW0%10000m1016hPa88%
14-Jun-2024 09:00Clear Sky13°C7 mph, W3%10000m1018hPa91%
14-Jun-2024 12:00Clear Sky14°C4 mph, NW1%10000m1018hPa86%
14-Jun-2024 15:00Clear Sky19°C4 mph, NW0%10000m1018hPa64%
14-Jun-2024 18:00Few Clouds23°C4 mph, SW18%10000m1017hPa52%
14-Jun-2024 21:00Broken Clouds25°C4 mph, S62%10000m1015hPa47%
15-Jun-2024 00:00Broken Clouds23°C7 mph, E81%10000m1014hPa63%
15-Jun-2024 03:00Overcast Clouds20°C7 mph, SE100%10000m1014hPa66%
15-Jun-2024 06:00Overcast Clouds20°C11 mph, SE100%10000m1013hPa69%
15-Jun-2024 09:00Overcast Clouds18°C9 mph, SE100%10000m1012hPa85%
15-Jun-2024 12:00Overcast Clouds18°C11 mph, SE100%10000m1010hPa85%
15-Jun-2024 15:00Overcast Clouds20°C13 mph, SE100%10000m1009hPa75%
15-Jun-2024 18:00Light Rain17°C13 mph, SE100%10000m1008hPa94%
15-Jun-2024 21:00Light Rain18°C13 mph, SE100%10000m1006hPa95%
16-Jun-2024 00:00Light Rain17°C11 mph, E100%10000m1004hPa97%
16-Jun-2024 03:00Overcast Clouds18°C7 mph, SE100%10000m1002hPa98%
16-Jun-2024 06:00Overcast Clouds19°C9 mph, N100%0m1000hPa99%
16-Jun-2024 09:00Overcast Clouds19°C9 mph, SE100%10000m999hPa97%
16-Jun-2024 12:00Overcast Clouds19°C9 mph, SE86%10000m999hPa96%
16-Jun-2024 15:00Scattered Clouds25°C16 mph, W36%10000m999hPa69%
16-Jun-2024 18:00Scattered Clouds24°C16 mph, NW45%10000m1002hPa65%
16-Jun-2024 21:00Scattered Clouds25°C11 mph, NW26%10000m1004hPa47%
17-Jun-2024 00:00Few Clouds23°C7 mph, NW17%10000m1005hPa57%
17-Jun-2024 03:00Clear Sky18°C2 mph, NW0%10000m1007hPa66%
17-Jun-2024 06:00Few Clouds16°C2 mph, W19%10000m1007hPa65%
17-Jun-2024 09:00Overcast Clouds17°C7 mph, W100%10000m1009hPa65%
17-Jun-2024 12:00Heavy Intensity Rain12°C11 mph, NE100%6866m1009hPa96%
17-Jun-2024 15:00Light Rain14°C9 mph, E100%10000m1008hPa91%
17-Jun-2024 18:00Light Rain16°C9 mph, NE100%9151m1008hPa92%
17-Jun-2024 21:00Moderate Rain16°C7 mph, NE100%10000m1007hPa96%
18-Jun-2024 00:00Moderate Rain16°C11 mph, NE100%10000m1005hPa96%